Time;durP1;ratioP1;P1;durP2;ratioP2;P2;SDS_P1;SDS_P2;PMS_P1;PMS_P2;Temp;Humidity;BMP_temperature;BMP_pressure;BME280_temperature;BME280_humidity;BME280_pressure;Samples;Min_cycle;Max_cycle;Signal;HPM_P1;HPM_P2
2023/08/03 00:01:20;;;;;;;;;10.20;10.20;;;;;23.16;48.24;98518.53;5075981;28;8866;-76
2023/08/03 00:03:50;;;;;;;;;11.40;11.40;;;;;23.20;48.32;98516.44;5058730;28;8951;-77
2023/08/03 00:06:20;;;;;;;;;14.40;13.00;;;;;23.14;48.62;98514.31;5087926;28;8874;-78
2023/08/03 00:08:48;;;;;;;;;11.00;11.00;;;;;23.14;48.48;98517.00;5092467;28;8929;-77
2023/08/03 00:11:17;;;;;;;;;12.00;12.00;;;;;23.12;48.77;98511.75;5087531;28;8851;-77
2023/08/03 00:13:46;;;;;;;;;15.60;13.60;;;;;23.10;48.96;98512.88;5071923;28;8862;-77
2023/08/03 00:16:15;;;;;;;;;11.40;10.20;;;;;23.02;49.53;98513.59;5071714;28;8866;-76
2023/08/03 00:18:44;;;;;;;;;15.40;14.40;;;;;22.90;50.12;98509.31;5071160;28;8850;-78
2023/08/03 00:21:14;;;;;;;;;10.20;9.80;;;;;22.75;50.69;98506.13;5070614;28;8870;-77
2023/08/03 00:23:42;;;;;;;;;14.00;13.80;;;;;22.71;51.03;98510.94;5052532;28;9016;-78
2023/08/03 00:26:11;;;;;;;;;17.00;15.60;;;;;22.76;50.70;98511.34;5071420;28;8865;-78
2023/08/03 00:28:40;;;;;;;;;16.40;16.40;;;;;22.44;51.82;98510.66;5071205;28;8864;-80
2023/08/03 00:31:09;;;;;;;;;13.60;13.60;;;;;22.52;51.55;98510.81;5070063;28;8882;-77
2023/08/03 00:33:38;;;;;;;;;14.80;14.60;;;;;22.61;51.38;98504.66;5037443;28;8834;-78
2023/08/03 00:36:07;;;;;;;;;13.60;13.60;;;;;22.69;51.07;98506.66;5070560;28;8940;-79
2023/08/03 00:38:37;;;;;;;;;13.00;13.00;;;;;22.73;50.98;98502.72;5050136;28;8852;-78
2023/08/03 00:41:06;;;;;;;;;14.40;14.40;;;;;22.70;51.17;98501.19;5049506;28;8865;-78
2023/08/03 00:43:35;;;;;;;;;13.00;13.00;;;;;22.64;51.27;98503.53;5049435;28;8846;-78
2023/08/03 00:46:04;;;;;;;;;18.60;18.20;;;;;22.50;51.90;98499.41;5052927;28;9703;-77
2023/08/03 00:48:33;;;;;;;;;16.00;16.00;;;;;22.50;51.79;98507.44;5070572;28;8860;-79
2023/08/03 00:51:02;;;;;;;;;16.00;14.20;;;;;22.51;51.92;98501.09;5052227;28;8846;-78
2023/08/03 00:53:31;;;;;;;;;15.40;14.80;;;;;22.37;52.36;98507.66;5052881;28;8874;-78
2023/08/03 00:56:01;;;;;;;;;20.20;17.20;;;;;22.40;52.22;98494.00;5015850;28;8942;-78
2023/08/03 00:58:30;;;;;;;;;13.20;11.80;;;;;22.48;52.27;98494.16;5015785;28;8905;-79
2023/08/03 01:00:59;;;;;;;;;14.40;13.80;;;;;22.57;51.93;98495.22;5017010;28;8879;-78
2023/08/03 01:03:28;;;;;;;;;19.00;16.80;;;;;22.53;52.16;98499.97;5008571;28;8888;-78
2023/08/03 01:05:57;;;;;;;;;13.80;13.80;;;;;22.48;52.29;98486.13;4991777;28;8863;-78
2023/08/03 01:08:26;;;;;;;;;15.40;15.00;;;;;22.55;52.09;98487.31;4992281;28;8977;-78
2023/08/03 01:10:55;;;;;;;;;18.80;18.80;;;;;22.36;52.78;98493.41;4955761;28;8857;-78
2023/08/03 01:13:26;;;;;;;;;16.80;15.00;;;;;22.49;52.23;98484.31;4973058;28;8998;-77
2023/08/03 01:15:57;;;;;;;;;15.80;15.80;;;;;22.31;53.09;98492.97;4995730;28;9593;-77
2023/08/03 01:18:25;;;;;;;;;12.60;12.60;;;;;22.48;52.64;98493.34;4963513;28;8919;-78
2023/08/03 01:20:55;;;;;;;;;16.40;16.40;;;;;22.41;52.69;98495.69;5027936;28;8965;-78
2023/08/03 01:23:25;;;;;;;;;16.40;15.00;;;;;22.38;52.66;98495.97;5027877;28;9693;-78
2023/08/03 01:25:54;;;;;;;;;15.60;14.80;;;;;22.33;53.13;98492.84;5027482;28;8879;-78
2023/08/03 01:28:23;;;;;;;;;16.60;15.40;;;;;22.29;53.23;98491.41;5027911;28;8888;-78
2023/08/03 01:30:52;;;;;;;;;16.80;16.80;;;;;22.29;53.31;98486.88;5030923;28;8859;-79
2023/08/03 01:33:21;;;;;;;;;17.20;16.20;;;;;22.43;52.56;98488.38;5041497;28;8915;-78
2023/08/03 01:35:50;;;;;;;;;15.60;14.80;;;;;22.39;52.98;98486.94;5011686;28;8837;-78
2023/08/03 01:38:19;;;;;;;;;15.60;14.60;;;;;22.41;52.99;98483.16;4995557;28;8875;-78
2023/08/03 01:40:50;;;;;;;;;16.60;16.40;;;;;22.39;52.79;98478.91;5029843;28;8892;-77
2023/08/03 01:43:18;;;;;;;;;14.20;14.20;;;;;22.41;52.84;98482.28;5067996;28;9671;-77
2023/08/03 01:45:48;;;;;;;;;16.80;16.00;;;;;22.40;52.96;98483.28;5035225;28;8866;-78
2023/08/03 01:48:16;;;;;;;;;16.80;16.00;;;;;22.46;52.93;98481.91;5070067;28;9207;-78
2023/08/03 01:50:45;;;;;;;;;16.60;16.60;;;;;22.38;52.77;98485.25;5068557;28;8865;-77
2023/08/03 01:53:16;;;;;;;;;14.00;14.00;;;;;22.19;53.69;98478.78;5068623;28;8882;-77
2023/08/03 01:55:46;;;;;;;;;15.40;15.40;;;;;22.40;52.93;98484.13;5068492;28;8882;-77
2023/08/03 01:58:17;;;;;;;;;16.60;15.40;;;;;22.45;52.63;98491.78;5071504;28;9666;-79
2023/08/03 02:00:46;;;;;;;;;13.00;13.00;;;;;22.42;52.88;98479.47;5105677;28;8884;-78
2023/08/03 02:03:17;;;;;;;;;17.00;17.00;;;;;22.42;52.84;98476.81;5090262;28;8856;-79
2023/08/03 02:05:46;;;;;;;;;17.20;17.20;;;;;22.45;52.77;98482.88;5088938;28;8848;-80
2023/08/03 02:08:16;;;;;;;;;17.20;15.80;;;;;22.35;53.00;98486.38;5086650;28;9686;-79
2023/08/03 02:10:45;;;;;;;;;15.20;15.00;;;;;22.39;52.94;98482.44;5089721;28;8855;-77
2023/08/03 02:13:13;;;;;;;;;16.80;16.20;;;;;22.47;52.46;98479.09;5083630;28;9632;-78
2023/08/03 02:15:44;;;;;;;;;16.40;15.40;;;;;22.37;53.09;98483.53;5069643;28;8850;-80
2023/08/03 02:18:12;;;;;;;;;18.00;18.00;;;;;22.47;52.87;98480.91;5067930;28;8862;-78
2023/08/03 02:20:41;;;;;;;;;16.40;16.00;;;;;22.49;52.68;98477.13;5068104;28;8850;-80
2023/08/03 02:23:10;;;;;;;;;15.20;15.20;;;;;22.57;52.44;98476.47;5051514;28;8908;-78
2023/08/03 02:25:39;;;;;;;;;13.40;13.40;;;;;22.73;51.74;98484.84;5068848;28;8854;-78
2023/08/03 02:28:08;;;;;;;;;15.40;14.00;;;;;22.80;51.46;98487.81;5073440;28;8989;-78
2023/08/03 02:30:39;;;;;;;;;17.80;17.80;;;;;22.85;51.53;98487.41;5069184;28;8830;-78
2023/08/03 02:33:11;;;;;;;;;16.60;16.40;;;;;22.95;50.74;98494.50;5068546;28;8984;-78
2023/08/03 02:35:41;;;;;;;;;15.40;14.60;;;;;23.00;50.97;98496.78;5068006;28;9624;-78
2023/08/03 02:38:10;;;;;;;;;16.00;16.00;;;;;22.99;50.80;98487.88;5069125;28;8858;-79
2023/08/03 02:40:39;;;;;;;;;14.80;14.80;;;;;22.85;51.42;98493.63;5068454;28;9619;-77
2023/08/03 02:43:08;;;;;;;;;17.40;15.60;;;;;22.63;52.10;98493.81;5069052;28;8869;-79
2023/08/03 02:45:41;;;;;;;;;15.80;14.60;;;;;22.68;51.88;98497.78;5068413;28;8860;-79
2023/08/03 02:48:11;;;;;;;;;17.80;16.80;;;;;22.85;51.43;98495.47;5089690;28;8940;-79
2023/08/03 02:50:41;;;;;;;;;16.00;16.00;;;;;22.70;51.73;98495.81;5088504;28;8855;-79
2023/08/03 02:53:13;;;;;;;;;15.80;15.60;;;;;22.86;51.42;98499.81;5040930;28;8832;-78
2023/08/03 02:55:46;;;;;;;;;16.60;15.60;;;;;22.82;51.44;98496.56;5096254;28;8868;-77
2023/08/03 02:58:14;;;;;;;;;15.00;14.20;;;;;22.85;51.29;98500.81;5111448;28;8856;-78
2023/08/03 03:00:44;;;;;;;;;19.60;17.00;;;;;22.65;51.88;98498.03;5085820;28;8836;-80
2023/08/03 03:03:15;;;;;;;;;17.00;17.00;;;;;22.51;52.40;98496.59;5105560;28;8917;-78
2023/08/03 03:05:44;;;;;;;;;16.00;15.00;;;;;22.75;51.50;98495.41;5088739;28;8900;-78
2023/08/03 03:08:15;;;;;;;;;16.20;16.20;;;;;22.69;51.96;98504.81;5054758;28;8844;-78
2023/08/03 03:10:47;;;;;;;;;18.60;16.20;;;;;22.74;51.65;98502.59;5082241;28;8823;-79
2023/08/03 03:13:16;;;;;;;;;15.00;15.00;;;;;22.77;51.57;98501.50;5067613;28;8854;-78
2023/08/03 03:15:46;;;;;;;;;15.00;13.80;;;;;22.66;51.82;98504.28;5066718;28;8838;-79
2023/08/03 03:18:17;;;;;;;;;16.80;16.80;;;;;22.57;51.98;98508.59;5064072;28;8845;-78
2023/08/03 03:20:46;;;;;;;;;16.80;16.00;;;;;22.70;51.45;98511.88;5046939;28;8908;-79
2023/08/03 03:23:14;;;;;;;;;18.00;17.00;;;;;22.38;52.82;98520.91;5046901;28;8861;-79
2023/08/03 03:25:44;;;;;;;;;16.00;15.80;;;;;22.59;52.04;98522.69;5046926;28;8857;-78
2023/08/03 03:28:13;;;;;;;;;18.60;18.40;;;;;22.65;51.83;98521.31;5048143;28;8849;-79
2023/08/03 03:30:42;;;;;;;;;17.00;16.00;;;;;22.63;52.06;98523.28;5030389;28;8895;-79
2023/08/03 03:33:11;;;;;;;;;17.40;15.60;;;;;22.68;51.63;98521.06;5049104;28;8887;-79
2023/08/03 03:35:46;;;;;;;;;16.40;14.80;;;;;22.47;52.52;98529.97;5067995;28;8931;-78
2023/08/03 03:38:17;;;;;;;;;17.20;17.00;;;;;22.37;52.80;98529.94;5086114;28;8846;-78
2023/08/03 03:40:48;;;;;;;;;17.60;17.00;;;;;22.51;52.57;98526.06;5069948;28;8934;-78
2023/08/03 03:43:17;;;;;;;;;13.80;13.80;;;;;22.55;52.19;98522.13;5023687;28;8946;-79
2023/08/03 03:45:47;;;;;;;;;16.20;15.40;;;;;22.32;53.07;98531.31;5073550;28;8939;-76
2023/08/03 03:48:16;;;;;;;;;29.20;28.20;;;;;22.43;52.80;98528.56;5041079;28;8865;-77
2023/08/03 03:50:47;;;;;;;;;29.00;26.60;;;;;22.55;52.33;98530.16;5085787;28;8840;-78
2023/08/03 03:53:16;;;;;;;;;19.20;18.20;;;;;22.55;52.07;98530.16;5094339;28;9010;-77
2023/08/03 03:55:49;;;;;;;;;18.20;15.60;;;;;22.46;52.53;98538.13;5063446;28;8832;-78
2023/08/03 03:58:17;;;;;;;;;17.60;17.60;;;;;22.51;52.20;98539.44;5094535;28;8847;-79
2023/08/03 04:00:46;;;;;;;;;17.60;17.40;;;;;22.52;52.35;98540.28;5110856;28;8894;-78
2023/08/03 04:03:15;;;;;;;;;12.60;11.00;;;;;22.71;51.55;98534.16;5092728;28;8880;-79
2023/08/03 04:05:44;;;;;;;;;15.00;14.40;;;;;22.76;51.32;98538.13;5043548;28;8948;-78
2023/08/03 04:08:15;;;;;;;;;17.20;16.60;;;;;22.73;51.48;98537.56;5074469;28;8839;-78
2023/08/03 04:10:44;;;;;;;;;19.60;19.00;;;;;22.73;51.46;98546.47;5073070;28;8844;-78
2023/08/03 04:13:13;;;;;;;;;19.80;19.80;;;;;22.86;51.23;98546.19;5090553;28;8944;-78
2023/08/03 04:15:42;;;;;;;;;29.60;28.80;;;;;22.89;50.99;98545.13;5086784;28;8819;-78
2023/08/03 04:18:11;;;;;;;;;18.00;18.00;;;;;23.00;50.45;98545.03;5071731;28;8955;-77
2023/08/03 04:20:40;;;;;;;;;21.40;19.60;;;;;22.83;50.70;98549.19;5070138;28;8869;-77
2023/08/03 04:23:08;;;;;;;;;19.00;19.00;;;;;22.87;50.61;98545.25;5071681;28;8853;-78
2023/08/03 04:25:39;;;;;;;;;14.60;14.40;;;;;23.07;50.44;98554.22;5063223;28;8863;-77
2023/08/03 04:28:16;;;;;;;;;19.40;17.80;;;;;23.22;49.88;98553.84;5090381;28;8852;-78
2023/08/03 04:30:46;;;;;;;;;20.20;19.60;;;;;23.01;50.34;98552.06;5107206;28;8836;-77
2023/08/03 04:33:14;;;;;;;;;16.40;15.80;;;;;23.08;50.16;98552.41;5107594;28;8985;-79
2023/08/03 04:35:43;;;;;;;;;20.20;19.00;;;;;22.90;50.67;98558.41;5074397;28;9616;-79
2023/08/03 04:38:16;;;;;;;;;16.80;15.40;;;;;23.09;50.13;98560.31;5073325;28;8851;-79
2023/08/03 04:40:53;;;;;;;;;17.20;17.20;;;;;23.31;49.48;98563.72;5072546;28;8873;-77
2023/08/03 04:43:26;;;;;;;;;16.20;16.20;;;;;23.27;49.60;98555.13;5073877;28;8886;-79
2023/08/03 04:45:55;;;;;;;;;16.80;15.40;;;;;23.20;49.87;98564.69;5087452;28;8827;-78
2023/08/03 04:48:24;;;;;;;;;17.00;14.00;;;;;23.47;49.17;98571.22;5070982;28;8854;-80
2023/08/03 04:50:54;;;;;;;;;15.00;14.80;;;;;23.43;48.98;98567.13;5055189;28;8869;-78
2023/08/03 04:53:25;;;;;;;;;17.60;15.80;;;;;23.72;48.56;98572.59;5069664;28;8943;-79
2023/08/03 04:55:55;;;;;;;;;17.80;16.80;;;;;23.91;48.03;98577.09;5070629;28;8846;-76
2023/08/03 04:58:25;;;;;;;;;20.40;20.40;;;;;24.07;47.35;98584.56;5067726;28;8864;-77
2023/08/03 05:00:54;;;;;;;;;28.40;25.40;;;;;24.37;46.70;98580.91;5074804;28;8924;-80
2023/08/03 05:03:23;;;;;;;;;17.20;17.00;;;;;24.34;46.21;98583.88;5071311;28;8910;-77
2023/08/03 05:05:52;;;;;;;;;12.80;12.80;;;;;24.41;45.98;98584.13;5071849;28;8842;-77
2023/08/03 05:08:22;;;;;;;;;17.00;17.00;;;;;24.37;46.66;98588.13;5070561;28;8881;-78
2023/08/03 05:10:54;;;;;;;;;17.80;17.00;;;;;24.54;46.19;98588.19;5087650;28;8857;-79
2023/08/03 05:13:24;;;;;;;;;15.00;15.00;;;;;24.58;46.18;98594.13;5087237;28;8961;-77
2023/08/03 05:15:53;;;;;;;;;19.20;18.20;;;;;24.73;45.43;98595.38;5070038;28;8841;-80
2023/08/03 05:18:22;;;;;;;;;18.20;17.60;;;;;24.76;45.76;98601.50;5070736;28;8868;-78
2023/08/03 05:20:51;;;;;;;;;16.40;16.40;;;;;24.92;45.25;98597.19;5087768;28;8865;-78
2023/08/03 05:23:20;;;;;;;;;17.40;16.60;;;;;25.03;44.64;98608.75;5054248;28;8894;-77
2023/08/03 05:25:54;;;;;;;;;16.00;16.00;;;;;25.22;44.16;98602.41;5077343;28;8964;-78
2023/08/03 05:28:25;;;;;;;;;14.20;14.00;;;;;25.31;44.54;98606.91;5086189;28;9670;-77
2023/08/03 05:30:54;;;;;;;;;16.00;15.20;;;;;25.23;44.17;98604.97;5036414;28;9507;-79
2023/08/03 05:33:23;;;;;;;;;14.20;14.20;;;;;25.39;43.70;98604.34;5070330;28;9007;-75
2023/08/03 05:35:52;;;;;;;;;15.20;14.60;;;;;25.58;43.17;98605.22;5087619;28;8945;-76
2023/08/03 05:38:21;;;;;;;;;17.60;16.40;;;;;25.89;42.78;98614.63;5070353;28;8840;-78
2023/08/03 05:40:50;;;;;;;;;16.60;14.80;;;;;25.90;42.97;98604.72;5070661;28;8836;-76
2023/08/03 05:43:19;;;;;;;;;16.80;16.20;;;;;26.15;42.25;98610.34;5070355;28;8956;-77
2023/08/03 05:45:50;;;;;;;;;14.40;14.00;;;;;26.34;41.52;98609.31;5073546;28;8901;-74
2023/08/03 05:48:20;;;;;;;;;17.80;17.80;;;;;26.46;41.15;98613.47;5082386;28;8846;-76
2023/08/03 05:50:51;;;;;;;;;17.80;17.00;;;;;26.46;41.20;98614.34;5075548;28;8864;-75
2023/08/03 05:53:20;;;;;;;;;18.20;17.20;;;;;26.69;40.93;98613.81;5048243;28;8995;-78
2023/08/03 05:55:49;;;;;;;;;17.40;15.60;;;;;26.87;40.60;98616.44;5049546;28;8865;-75
2023/08/03 05:58:37;;;;;;;;;17.80;17.80;;;;;27.14;40.38;98604.66;5047807;28;8841;-75
2023/08/03 06:01:11;;;;;;;;;19.00;19.00;;;;;27.33;39.58;98600.84;5048513;28;8852;-76
2023/08/03 06:03:44;;;;;;;;;18.40;18.40;;;;;27.23;39.33;98616.28;5063300;28;8987;-75
2023/08/03 06:06:16;;;;;;;;;21.20;21.00;;;;;27.51;38.88;98608.81;5069373;28;8867;-74
2023/08/03 06:08:48;;;;;;;;;20.20;19.20;;;;;27.59;39.34;98608.00;5069561;28;8881;-76
2023/08/03 06:11:20;;;;;;;;;19.40;19.40;;;;;27.77;38.34;98613.31;5069317;28;8850;-75
2023/08/03 06:13:55;;;;;;;;;21.40;20.40;;;;;27.73;37.92;98609.25;5068589;28;8967;-75
2023/08/03 06:16:26;;;;;;;;;17.60;17.00;;;;;27.81;38.52;98609.25;5069055;28;9002;-77
2023/08/03 06:18:58;;;;;;;;;26.60;25.00;;;;;28.02;37.97;98606.94;5068931;28;9624;-75
2023/08/03 06:21:28;;;;;;;;;21.40;21.40;;;;;28.18;37.67;98610.69;5069130;28;8858;-75
2023/08/03 06:23:59;;;;;;;;;25.60;22.80;;;;;28.33;37.39;98613.56;5066974;28;8858;-77
2023/08/03 06:26:32;;;;;;;;;24.20;23.20;;;;;28.51;37.13;98622.31;5066799;28;8862;-75
2023/08/03 06:29:02;;;;;;;;;19.60;19.20;;;;;28.54;37.10;98630.09;5066991;28;8908;-76
2023/08/03 06:31:35;;;;;;;;;19.80;19.80;;;;;28.77;36.80;98624.00;5067563;28;8873;-75
2023/08/03 06:34:04;;;;;;;;;13.80;12.80;;;;;28.56;35.67;98622.63;5083349;28;8862;-75
2023/08/03 06:36:36;;;;;;;;;19.00;18.00;;;;;28.83;36.00;98626.00;5049800;28;8885;-75
2023/08/03 06:39:05;;;;;;;;;15.00;14.20;;;;;28.86;35.75;98630.22;5067465;28;9628;-75
2023/08/03 06:41:34;;;;;;;;;16.60;15.20;;;;;29.05;35.87;98635.25;5068368;28;8881;-78
2023/08/03 06:44:03;;;;;;;;;17.40;16.40;;;;;28.97;34.81;98632.56;5068345;28;8872;-76
2023/08/03 06:46:34;;;;;;;;;13.80;13.40;;;;;29.02;34.71;98634.75;5067111;28;8834;-74
2023/08/03 06:49:03;;;;;;;;;14.20;13.60;;;;;28.90;34.55;98639.69;5067143;28;8870;-74
2023/08/03 06:51:33;;;;;;;;;16.60;15.80;;;;;28.99;34.82;98636.78;5033588;28;8906;-74
2023/08/03 06:54:02;;;;;;;;;13.60;13.00;;;;;28.85;34.52;98634.78;5068643;28;8882;-75
2023/08/03 06:56:31;;;;;;;;;14.60;14.60;;;;;28.59;35.39;98648.47;5068841;28;8850;-75
2023/08/03 06:59:00;;;;;;;;;11.20;11.00;;;;;28.64;35.28;98642.63;5068969;28;8830;-75
2023/08/03 07:01:29;;;;;;;;;12.60;10.60;;;;;28.95;35.04;98640.00;5065996;28;8917;-76
2023/08/03 07:03:59;;;;;;;;;14.00;14.00;;;;;28.98;34.66;98639.66;5065948;28;8882;-75
2023/08/03 07:06:29;;;;;;;;;17.60;15.60;;;;;28.60;34.82;98637.50;5049611;28;8866;-78
2023/08/03 07:08:58;;;;;;;;;22.20;21.40;;;;;28.93;35.08;98639.31;5066264;28;8855;-76
2023/08/03 07:11:27;;;;;;;;;16.20;16.20;;;;;29.17;34.42;98639.28;5065828;28;8859;-75
2023/08/03 07:13:56;;;;;;;;;12.00;12.00;;;;;29.41;33.44;98634.81;5065760;28;8846;-74
2023/08/03 07:16:26;;;;;;;;;10.00;10.00;;;;;29.44;32.28;98637.13;5065073;28;8846;-75
2023/08/03 07:18:56;;;;;;;;;13.40;13.40;;;;;29.43;32.33;98637.34;5016140;28;8973;-76
2023/08/03 07:21:26;;;;;;;;;11.40;10.60;;;;;29.56;31.70;98640.31;5066145;28;8830;-74
2023/08/03 07:23:54;;;;;;;;;13.60;13.00;;;;;29.03;32.19;98642.69;5066024;28;9670;-76
2023/08/03 07:26:24;;;;;;;;;13.00;12.40;;;;;29.03;32.16;98631.88;5066198;28;8846;-78
2023/08/03 07:28:52;;;;;;;;;13.20;13.20;;;;;29.35;32.25;98636.34;5032434;28;8846;-77
2023/08/03 07:31:21;;;;;;;;;11.00;11.00;;;;;29.48;31.26;98633.09;5016038;28;8850;-77
2023/08/03 07:33:50;;;;;;;;;15.00;14.80;;;;;28.93;32.25;98634.78;5065470;28;8866;-75
2023/08/03 07:36:19;;;;;;;;;13.40;13.40;;;;;28.10;33.51;98641.22;5065832;28;9015;-75
2023/08/03 07:38:49;;;;;;;;;11.00;11.00;;;;;27.83;34.19;98643.16;5066757;28;8851;-75
2023/08/03 07:41:18;;;;;;;;;14.80;13.60;;;;;27.85;34.05;98639.47;5068081;28;8850;-76
2023/08/03 07:43:47;;;;;;;;;15.60;15.60;;;;;27.98;34.04;98640.66;5067132;28;8870;-77
2023/08/03 07:46:17;;;;;;;;;13.20;12.00;;;;;28.09;33.71;98638.66;5068144;28;8935;-75
2023/08/03 07:48:45;;;;;;;;;11.80;11.80;;;;;28.64;32.81;98643.44;5048988;28;8869;-73
2023/08/03 07:51:15;;;;;;;;;11.80;11.20;;;;;29.03;32.14;98640.00;5068151;28;8951;-76
2023/08/03 07:53:49;;;;;;;;;12.20;12.00;;;;;29.32;31.82;98646.69;5068138;28;8877;-78
2023/08/03 07:56:19;;;;;;;;;10.80;10.80;;;;;29.57;31.16;98655.53;5068013;28;8831;-75
2023/08/03 07:58:49;;;;;;;;;13.40;13.00;;;;;29.83;31.08;98649.00;5067944;28;8858;-77
2023/08/03 08:01:19;;;;;;;;;15.40;15.40;;;;;29.45;30.50;98659.66;5068205;28;9703;-74
2023/08/03 08:03:49;;;;;;;;;13.80;13.80;;;;;29.23;31.29;98648.56;5068333;28;8847;-76
2023/08/03 08:06:19;;;;;;;;;12.00;12.00;;;;;29.02;30.45;98656.41;5068437;28;8939;-75
2023/08/03 08:08:51;;;;;;;;;13.80;13.80;;;;;29.16;30.85;98651.16;5068512;28;8929;-75
2023/08/03 08:11:20;;;;;;;;;12.00;12.00;;;;;29.05;30.82;98654.19;5083795;28;8850;-75
2023/08/03 08:13:49;;;;;;;;;13.40;13.00;;;;;28.78;30.84;98650.88;5066543;28;8858;-75
2023/08/03 08:16:18;;;;;;;;;11.40;11.40;;;;;29.28;30.94;98651.59;5068020;28;8834;-76
2023/08/03 08:18:47;;;;;;;;;10.40;9.40;;;;;29.60;30.03;98657.91;5067909;28;9604;-75
2023/08/03 08:21:16;;;;;;;;;9.40;9.40;;;;;29.78;30.11;98656.81;5067828;28;8863;-75
2023/08/03 08:23:45;;;;;;;;;9.80;9.40;;;;;30.07;29.95;98653.44;5067805;28;9072;-76
2023/08/03 08:26:17;;;;;;;;;11.20;11.20;;;;;30.30;29.68;98654.28;5067674;28;9590;-75
2023/08/03 08:28:47;;;;;;;;;14.80;12.80;;;;;30.51;29.29;98655.47;5085642;28;8851;-76
2023/08/03 08:31:33;;;;;;;;;14.20;12.60;;;;;30.66;28.64;98653.63;5071319;28;8858;-76
2023/08/03 08:34:04;;;;;;;;;7.60;7.60;;;;;30.28;29.66;98658.22;5069923;28;8959;-75
2023/08/03 08:36:33;;;;;;;;;9.80;8.60;;;;;30.62;29.15;98654.19;5071533;28;8847;-75
2023/08/03 08:39:02;;;;;;;;;10.40;9.80;;;;;30.72;29.12;98657.50;5071383;28;8873;-74
2023/08/03 08:41:32;;;;;;;;;13.60;13.60;;;;;30.80;27.96;98662.84;5071242;28;8854;-76
2023/08/03 08:44:01;;;;;;;;;12.40;12.40;;;;;30.11;29.07;98661.00;5070871;28;8850;-74
2023/08/03 08:46:30;;;;;;;;;12.40;12.40;;;;;29.78;29.58;98662.22;5071415;28;8869;-74
2023/08/03 08:48:59;;;;;;;;;16.80;14.80;;;;;29.89;29.50;98664.53;5070992;28;8924;-74
2023/08/03 08:51:29;;;;;;;;;14.20;13.20;;;;;30.29;29.21;98671.56;5071053;28;8877;-75
2023/08/03 08:54:01;;;;;;;;;10.60;10.40;;;;;30.07;28.50;98669.69;5071248;28;8843;-76
2023/08/03 08:56:34;;;;;;;;;12.20;12.00;;;;;29.71;29.00;98662.94;5073382;28;8862;-74
2023/08/03 08:59:06;;;;;;;;;12.00;10.20;;;;;29.80;29.08;98657.47;5074089;28;8866;-75
2023/08/03 09:01:51;;;;;;;;;12.00;12.00;;;;;30.30;29.23;98667.00;5071071;28;8830;-76
2023/08/03 09:04:28;;;;;;;;;14.40;12.00;;;;;29.15;30.39;98670.22;5071355;28;8874;-78
2023/08/03 09:07:00;;;;;;;;;10.20;10.20;;;;;29.06;30.62;98663.97;5053074;28;8850;-76
2023/08/03 09:09:33;;;;;;;;;17.60;13.00;;;;;29.10;29.91;98665.34;5070618;28;8963;-76
2023/08/03 09:12:04;;;;;;;;;11.40;10.40;;;;;28.96;30.86;98661.47;5036049;28;8909;-76
2023/08/03 09:14:50;;;;;;;;;12.20;12.20;;;;;28.41;30.89;98667.59;5035279;28;8889;-78
2023/08/03 09:17:22;;;;;;;;;12.20;12.20;;;;;28.80;30.97;98664.19;5070612;28;8877;-77
2023/08/03 09:19:52;;;;;;;;;12.00;12.00;;;;;29.16;30.37;98653.84;5069199;28;8862;-77
2023/08/03 09:22:25;;;;;;;;;14.00;13.00;;;;;29.39;29.47;98655.81;5071140;28;8838;-76
2023/08/03 09:25:02;;;;;;;;;5.40;5.00;;;;;29.80;28.71;98652.91;5071154;28;9632;-77
2023/08/03 09:27:32;;;;;;;;;9.20;9.20;;;;;29.86;28.67;98654.91;5071308;28;8834;-75
2023/08/03 09:30:06;;;;;;;;;10.80;10.80;;;;;29.69;28.83;98647.88;5070742;28;9639;-77
2023/08/03 09:32:38;;;;;;;;;15.00;14.60;;;;;30.13;29.00;98655.41;5071033;28;8957;-76
2023/08/03 09:35:20;;;;;;;;;15.60;15.60;;;;;29.78;28.78;98651.41;5070691;28;8855;-76
2023/08/03 09:37:50;;;;;;;;;11.20;11.20;;;;;30.20;28.13;98650.13;5051635;28;8959;-76
2023/08/03 09:40:20;;;;;;;;;14.00;13.20;;;;;30.20;28.01;98663.66;5034311;28;9581;-75
2023/08/03 09:42:51;;;;;;;;;14.60;14.60;;;;;30.45;28.28;98658.91;5070391;28;8919;-77
2023/08/03 09:45:19;;;;;;;;;9.00;9.00;;;;;30.59;27.04;98652.66;5070270;28;8987;-75
2023/08/03 09:47:51;;;;;;;;;11.20;10.20;;;;;30.80;26.94;98645.72;5070164;28;8834;-76
2023/08/03 09:50:21;;;;;;;;;7.00;7.00;;;;;30.58;26.75;98651.00;5070351;28;8842;-77
2023/08/03 09:52:53;;;;;;;;;11.20;11.20;;;;;30.26;27.55;98654.84;5051305;28;8859;-75
2023/08/03 09:55:28;;;;;;;;;12.60;12.00;;;;;30.17;27.76;98656.72;5069992;28;8865;-74
2023/08/03 09:58:03;;;;;;;;;11.00;11.00;;;;;29.68;27.95;98646.22;5069556;28;8850;-77
2023/08/03 10:00:33;;;;;;;;;10.60;10.60;;;;;29.51;28.14;98650.84;5069958;28;8858;-76
2023/08/03 10:03:09;;;;;;;;;12.60;11.40;;;;;29.71;28.07;98644.00;5034584;28;8906;-75
2023/08/03 10:05:40;;;;;;;;;9.80;9.80;;;;;29.77;27.53;98644.31;5051282;28;9696;-75
2023/08/03 10:08:28;;;;;;;;;10.80;9.60;;;;;30.17;27.59;98642.34;5069525;28;8842;-75
2023/08/03 10:11:00;;;;;;;;;10.60;10.60;;;;;30.51;27.71;98641.91;5070050;28;8888;-78
2023/08/03 10:13:33;;;;;;;;;12.60;11.80;;;;;30.84;27.42;98645.19;5019187;28;9683;-76
2023/08/03 10:16:03;;;;;;;;;11.60;10.60;;;;;31.02;27.20;98650.22;5069549;28;8873;-75
2023/08/03 10:18:35;;;;;;;;;12.00;12.00;;;;;31.15;26.94;98646.03;5050047;28;9010;-77
2023/08/03 10:21:08;;;;;;;;;10.20;10.20;;;;;31.26;27.32;98638.28;5050652;28;9689;-76
2023/08/03 10:23:38;;;;;;;;;10.80;10.80;;;;;31.34;27.63;98647.38;5050589;28;8838;-75
2023/08/03 10:26:08;;;;;;;;;12.80;12.80;;;;;31.08;27.06;98644.03;5068789;28;8851;-75
2023/08/03 10:28:48;;;;;;;;;10.40;9.20;;;;;31.49;26.16;98638.16;5069525;28;8850;-76
2023/08/03 10:31:18;;;;;;;;;11.60;10.80;;;;;31.40;26.63;98633.03;5069243;28;8847;-76
2023/08/03 10:34:14;;;;;;;;;11.00;11.00;;;;;31.32;26.87;98644.84;5069266;28;9596;-75
2023/08/03 10:36:49;;;;;;;;;14.20;12.20;;;;;30.81;27.25;98645.53;5069427;28;8882;-77
2023/08/03 10:39:53;;;;;;;;;12.00;11.00;;;;;31.11;26.73;98640.13;5069441;28;8830;-76
2023/08/03 10:42:24;;;;;;;;;11.20;11.20;;;;;31.24;26.38;98634.91;5068996;28;8885;-76
2023/08/03 10:45:15;;;;;;;;;10.20;9.20;;;;;31.48;26.49;98622.88;5069427;28;8834;-75
2023/08/03 10:47:44;;;;;;;;;9.60;9.60;;;;;31.61;26.85;98629.50;5033147;28;8870;-77
2023/08/03 10:50:14;;;;;;;;;9.80;9.80;;;;;31.87;26.25;98624.41;5069273;28;9091;-76
2023/08/03 10:52:42;;;;;;;;;13.40;13.00;;;;;32.05;26.66;98626.69;5068826;28;8866;-76
2023/08/03 10:55:24;;;;;;;;;12.60;12.60;;;;;31.91;26.21;98618.59;5068832;28;8877;-76
2023/08/03 10:57:54;;;;;;;;;11.40;11.40;;;;;32.05;25.86;98623.09;5033198;28;9620;-75
2023/08/03 11:00:25;;;;;;;;;16.60;16.20;;;;;32.32;25.99;98615.22;5068228;28;8950;-76
2023/08/03 11:02:54;;;;;;;;;11.80;11.80;;;;;32.51;26.45;98622.72;5068517;28;8851;-76
2023/08/03 11:05:23;;;;;;;;;10.00;10.00;;;;;32.77;24.96;98618.53;5068559;28;9654;-77
2023/08/03 11:07:51;;;;;;;;;14.60;14.00;;;;;32.55;25.51;98617.72;5049681;28;9698;-76
2023/08/03 11:10:21;;;;;;;;;11.20;11.20;;;;;32.76;25.33;98612.25;5030552;28;8860;-75
2023/08/03 11:12:54;;;;;;;;;14.00;12.00;;;;;32.95;25.22;98613.41;5068655;28;8947;-75
2023/08/03 11:15:25;;;;;;;;;10.80;10.80;;;;;32.62;24.83;98616.78;5068764;28;8842;-77
2023/08/03 11:17:54;;;;;;;;;13.80;13.00;;;;;32.73;25.12;98604.47;5069181;28;8846;-76
2023/08/03 11:20:23;;;;;;;;;11.60;11.60;;;;;32.95;24.84;98607.97;5069306;28;8842;-77
2023/08/03 11:22:52;;;;;;;;;11.00;11.00;;;;;31.91;25.98;98610.44;5068496;28;8858;-75
2023/08/03 11:25:22;;;;;;;;;12.00;11.40;;;;;32.33;25.48;98600.59;5033692;28;8946;-77
2023/08/03 11:27:53;;;;;;;;;10.00;10.00;;;;;32.73;25.28;98607.19;5068521;28;8842;-76
2023/08/03 11:30:22;;;;;;;;;11.60;10.00;;;;;33.08;24.79;98601.78;5068430;28;8858;-77
2023/08/03 11:32:57;;;;;;;;;11.20;11.20;;;;;33.55;24.80;98605.56;5066614;28;8946;-79
2023/08/03 11:35:26;;;;;;;;;11.00;10.20;;;;;33.77;24.52;98595.38;5070297;28;8886;-77
2023/08/03 11:37:55;;;;;;;;;11.00;11.00;;;;;34.16;23.67;98607.41;5051774;28;8900;-77
2023/08/03 11:40:25;;;;;;;;;11.60;11.60;;;;;34.47;23.66;98605.13;5070664;28;9643;-77
2023/08/03 11:42:54;;;;;;;;;10.20;10.20;;;;;34.79;22.96;98603.41;5068677;28;8839;-76